Bloomington, Wisconsin
Current Conditions -  °F | °C
As of 3:15 PM on Monday 24 Nov 2014 (Local Time) from KPDC Reporting Station
Overcast Overcast  
Wind Chill: -12°   Ceiling: 1900
Heat Index: -5°   Visibility: 10mi
Dew Point: -8°   Wind: 17mph
Humidity: 77%   Direction: 270°W
Pressure: 29.55"   Gusts: 26mph
Location:  42.89°N, 90.92°W
Report Text: KPDC 242115Z AUTO 27015G23KT 10SM OVC019 M05/M08 A2955 RMK AO2 T10461080
Loading
Personal Weather Stations






























Interactive Weather Map New forecast layout! Learn more

10-Day Weather Forecast

Advertisements
Track Severe Weather on mobile